STV Kaliakra — LZKY — position and weather

sailwx.info

Track history (hours):
 
Tides and Currents Weather Stations Pressure Air Temp Water Temp Dewpoint Dewpoint Depression Visibility Wind Speed Wind Dir Waves Ship Positions

STV Kaliakra (Bulgaria)

Ship's website: http://www.navbul.com/kali/mainkali.html

Last reported at 2016-Sep-19 14:33 UTC. Time now 2016-Sep-28 05:11 UTC.
Position N 44°34' E 037°45'.
Warning: this ship's position is 8 days out of date.

Length 54 m; draft 3.8 m.

Type: Sailing vessel. MMSI: 207037000.

Date/timePositionNaut miles runAvg speedWind from/ knotsBaromVisibWave heightAir tempDewpointWater temp
2016-Sep-19 14:33N 44°34' E 037°45'4 4.4
2016-Sep-19 13:33N 44°36' E 037°51'1 0.8
2016-Sep-19 12:33N 44°36' E 037°52'1 1.0
2016-Sep-19 11:33N 44°37' E 037°51'7 3.3
2016-Sep-19 09:32N 44°43' E 037°47'0 0.1
2016-Sep-19 07:32N 44°43' E 037°47'0 0.0
2016-Sep-19 06:33N 44°43' E 037°47'0 0.0
2016-Sep-19 03:33N 44°43' E 037°47'0 0.0
2016-Sep-19 02:33N 44°43' E 037°47'0 0.0
2016-Sep-19 00:31N 44°43' E 037°47'0 0.0
2016-Sep-18 19:32N 44°43' E 037°47'0 0.0
2016-Sep-18 15:32N 44°43' E 037°47'0 0.0
2016-Sep-18 14:32N 44°43' E 037°47'0 0.0
2016-Sep-18 10:32N 44°43' E 037°47'0 0.0
2016-Sep-18 09:32N 44°43' E 037°47'0 0.0
2016-Sep-18 02:31N 44°43' E 037°47'0 0.0
2016-Sep-18 01:31N 44°43' E 037°47'0 0.0
2016-Sep-18 00:32N 44°43' E 037°47'0 0.0
2016-Sep-17 22:32N 44°43' E 037°47'0 0.0
2016-Sep-17 21:32N 44°43' E 037°47'0 0.0
2016-Sep-17 20:32N 44°43' E 037°47'0 0.0
2016-Sep-17 19:16N 44°43' E 037°47'0 0.0
2016-Sep-17 13:31N 44°43' E 037°47'0 0.0
2016-Sep-17 12:31N 44°43' E 037°47'0 0.0
2016-Sep-17 10:31N 44°43' E 037°47'0 0.0
2016-Sep-17 09:31N 44°43' E 037°47'0 0.0
2016-Sep-17 08:31N 44°43' E 037°47'0 0.0
2016-Sep-17 07:31N 44°43' E 037°47'0 0.0
2016-Sep-17 05:31N 44°43' E 037°47'0 0.0
2016-Sep-17 04:31N 44°43' E 037°47'0 0.0
2016-Sep-17 00:31N 44°43' E 037°47'0 0.0
2016-Sep-16 17:31N 44°43' E 037°47'0 0.0
2016-Sep-16 15:32N 44°43' E 037°47'8 2.8
2016-Sep-16 12:33N 44°35' E 037°48'  
Track history (hours):
 
Tides and Currents Weather Stations Pressure Air Temp Water Temp Dewpoint Dewpoint Depression Visibility Wind Speed Wind Dir Waves Ship Positions

STV Kaliakra (Bulgaria)

Ship's website: http://www.navbul.com/kali/mainkali.html

Last reported at 2016-Sep-19 14:33 UTC. Time now 2016-Sep-28 05:11 UTC.
Position N 44°34' E 037°45'.
Warning: this ship's position is 8 days out of date.

Length 54 m; draft 3.8 m.

Type: Sailing vessel. MMSI: 207037000.

Date/timePositionNaut miles runAvg speedWind from/ knotsBaromVisibWave heightAir tempDewpointWater temp
2016-Sep-19 14:33N 44°34' E 037°45'4 4.4
2016-Sep-19 13:33N 44°36' E 037°51'1 0.8
2016-Sep-19 12:33N 44°36' E 037°52'1 1.0
2016-Sep-19 11:33N 44°37' E 037°51'7 3.3
2016-Sep-19 09:32N 44°43' E 037°47'0 0.1
2016-Sep-19 07:32N 44°43' E 037°47'0 0.0
2016-Sep-19 06:33N 44°43' E 037°47'0 0.0
2016-Sep-19 03:33N 44°43' E 037°47'0 0.0
2016-Sep-19 02:33N 44°43' E 037°47'0 0.0
2016-Sep-19 00:31N 44°43' E 037°47'0 0.0
2016-Sep-18 19:32N 44°43' E 037°47'0 0.0
2016-Sep-18 15:32N 44°43' E 037°47'0 0.0
2016-Sep-18 14:32N 44°43' E 037°47'0 0.0
2016-Sep-18 10:32N 44°43' E 037°47'0 0.0
2016-Sep-18 09:32N 44°43' E 037°47'0 0.0
2016-Sep-18 02:31N 44°43' E 037°47'0 0.0
2016-Sep-18 01:31N 44°43' E 037°47'0 0.0
2016-Sep-18 00:32N 44°43' E 037°47'0 0.0
2016-Sep-17 22:32N 44°43' E 037°47'0 0.0
2016-Sep-17 21:32N 44°43' E 037°47'0 0.0
2016-Sep-17 20:32N 44°43' E 037°47'0 0.0
2016-Sep-17 19:16N 44°43' E 037°47'0 0.0
2016-Sep-17 13:31N 44°43' E 037°47'0 0.0
2016-Sep-17 12:31N 44°43' E 037°47'0 0.0
2016-Sep-17 10:31N 44°43' E 037°47'0 0.0
2016-Sep-17 09:31N 44°43' E 037°47'0 0.0
2016-Sep-17 08:31N 44°43' E 037°47'0 0.0
2016-Sep-17 07:31N 44°43' E 037°47'0 0.0
2016-Sep-17 05:31N 44°43' E 037°47'0 0.0
2016-Sep-17 04:31N 44°43' E 037°47'0 0.0
2016-Sep-17 00:31N 44°43' E 037°47'0 0.0
2016-Sep-16 17:31N 44°43' E 037°47'0 0.0
2016-Sep-16 15:32N 44°43' E 037°47'8 2.8
2016-Sep-16 12:33N 44°35' E 037°48'  

Dump ship's entire track history